Pagrindinis puslapis
METAR-TAF:

METAR-TAF

Oro uostai :

Ojapokė, Amapa, Brazilija

platuma: 03-50N, ilguma: 051-50W, Aukštis: 39 m

Dabartinis oras

Ataskaita buvo paskelbta 2 valandos ir 42 minutes, ne 20:00 UTC
Vėjas 5 kt iš Pietryčių
Temperatūra 34°C
Drėgmė 47%
Slėgis 1009 hPa
Matomumas 10 km arba daugiau
Išsisklaidę debesys ne aukštis 4000 ft

METAR: SBOI 162000Z 13005KT 9999 SCT040 34/21 Q1009

Laikas: 19:42 (22:42 UTC)

Prognozė

Ataskaita buvo paskelbta 7 valandos ir 19 minutes, ne 15:23 UTC
Prognozė galioja nuo 16 metu 18 UTC su 17 metu 06 UTC
Vėjas 5 kt iš Rytų/Pietryčių
Matomumas 10 km arba daugiau
Išsisklaidę debesys ne aukštis 3000 ft

TAF: SBOI 161523Z 1618/1706 12005KT 9999 SCT030 TX34/1618Z TN33/1620Z RMK PHI

Orai ataskaitas ir orų prognozės (METAR, TAF).

turimą stotys yra geltonos ir raudonos taškus žemėlapyje.

Perkelti pele per norėdami pamatyti stoties vardą.

Tada spustelėkite, norėdami matyti oro stebėjimo ir prognozės.

Norėdami pakeisti žemėlapį: spustelėkite ant žalios mygtukų su juodo kryžiaus žemyn,; žalią mygtuką su brūkšneliu, jei norite nutolinti; arba žalių rodyklių gretimoms žemėlapius.


METAR-TAF: